sensor_id;sensor_type;location;lat;lon;timestamp;P1;durP1;ratioP1;P2;durP2;ratioP2
22363;SDS011;11349;53.412;-1.328;2023-03-01T00:01:08;15.13;;;6.93;;
22363;SDS011;11349;53.412;-1.328;2023-03-01T00:03:36;18.52;;;8.02;;
22363;SDS011;11349;53.412;-1.328;2023-03-01T00:06:02;15.35;;;9.18;;
22363;SDS011;11349;53.412;-1.328;2023-03-01T00:08:29;25.13;;;10.55;;
22363;SDS011;11349;53.412;-1.328;2023-03-01T00:11:10;19.67;;;10.93;;
22363;SDS011;11349;53.412;-1.328;2023-03-01T00:13:42;23.15;;;12.05;;
22363;SDS011;11349;53.412;-1.328;2023-03-01T00:16:14;19.52;;;10.65;;
22363;SDS011;11349;53.412;-1.328;2023-03-01T00:18:42;15.77;;;9.32;;
22363;SDS011;11349;53.412;-1.328;2023-03-01T00:21:08;15.45;;;8.25;;
22363;SDS011;11349;53.412;-1.328;2023-03-01T00:23:34;13.52;;;5.20;;
22363;SDS011;11349;53.412;-1.328;2023-03-01T00:26:00;9.00;;;4.03;;
22363;SDS011;11349;53.412;-1.328;2023-03-01T00:28:26;11.20;;;3.97;;
22363;SDS011;11349;53.412;-1.328;2023-03-01T00:30:52;9.98;;;3.13;;
22363;SDS011;11349;53.412;-1.328;2023-03-01T00:33:18;6.85;;;2.72;;
22363;SDS011;11349;53.412;-1.328;2023-03-01T00:35:44;12.70;;;4.15;;
22363;SDS011;11349;53.412;-1.328;2023-03-01T00:38:10;9.20;;;2.88;;
22363;SDS011;11349;53.412;-1.328;2023-03-01T00:40:37;8.98;;;2.70;;
22363;SDS011;11349;53.412;-1.328;2023-03-01T00:43:03;7.70;;;2.85;;
22363;SDS011;11349;53.412;-1.328;2023-03-01T00:45:29;8.65;;;3.40;;
22363;SDS011;11349;53.412;-1.328;2023-03-01T00:47:57;7.85;;;3.67;;
22363;SDS011;11349;53.412;-1.328;2023-03-01T00:50:23;10.43;;;5.57;;
22363;SDS011;11349;53.412;-1.328;2023-03-01T00:52:55;14.38;;;6.22;;
22363;SDS011;11349;53.412;-1.328;2023-03-01T00:55:21;8.07;;;5.05;;
22363;SDS011;11349;53.412;-1.328;2023-03-01T00:57:47;8.00;;;3.55;;
22363;SDS011;11349;53.412;-1.328;2023-03-01T01:00:13;5.72;;;2.92;;
22363;SDS011;11349;53.412;-1.328;2023-03-01T01:02:40;5.03;;;2.20;;
22363;SDS011;11349;53.412;-1.328;2023-03-01T01:05:06;5.03;;;2.20;;
22363;SDS011;11349;53.412;-1.328;2023-03-01T01:07:32;4.97;;;2.00;;
22363;SDS011;11349;53.412;-1.328;2023-03-01T01:09:58;4.78;;;1.95;;
22363;SDS011;11349;53.412;-1.328;2023-03-01T01:12:23;5.15;;;1.70;;
22363;SDS011;11349;53.412;-1.328;2023-03-01T01:14:49;7.43;;;2.78;;
22363;SDS011;11349;53.412;-1.328;2023-03-01T01:17:15;7.30;;;3.15;;
22363;SDS011;11349;53.412;-1.328;2023-03-01T01:19:41;9.48;;;3.20;;
22363;SDS011;11349;53.412;-1.328;2023-03-01T01:22:06;6.97;;;3.53;;
22363;SDS011;11349;53.412;-1.328;2023-03-01T01:24:35;6.35;;;3.60;;
22363;SDS011;11349;53.412;-1.328;2023-03-01T01:27:01;8.43;;;3.13;;
22363;SDS011;11349;53.412;-1.328;2023-03-01T01:29:27;7.75;;;3.53;;
22363;SDS011;11349;53.412;-1.328;2023-03-01T01:31:53;5.72;;;2.90;;
22363;SDS011;11349;53.412;-1.328;2023-03-01T01:34:19;10.55;;;2.35;;
22363;SDS011;11349;53.412;-1.328;2023-03-01T01:36:53;6.25;;;2.60;;
22363;SDS011;11349;53.412;-1.328;2023-03-01T01:39:19;8.70;;;3.60;;
22363;SDS011;11349;53.412;-1.328;2023-03-01T01:41:45;10.07;;;6.22;;
22363;SDS011;11349;53.412;-1.328;2023-03-01T01:44:19;17.42;;;11.73;;
22363;SDS011;11349;53.412;-1.328;2023-03-01T01:46:53;13.38;;;10.07;;
22363;SDS011;11349;53.412;-1.328;2023-03-01T01:54:41;15.73;;;7.10;;
22363;SDS011;11349;53.412;-1.328;2023-03-01T01:57:19;15.50;;;7.72;;
22363;SDS011;11349;53.412;-1.328;2023-03-01T01:59:51;12.57;;;7.60;;
22363;SDS011;11349;53.412;-1.328;2023-03-01T02:02:21;19.63;;;9.75;;
22363;SDS011;11349;53.412;-1.328;2023-03-01T02:04:48;15.52;;;8.40;;
22363;SDS011;11349;53.412;-1.328;2023-03-01T02:07:17;13.07;;;7.15;;
22363;SDS011;11349;53.412;-1.328;2023-03-01T02:09:47;9.57;;;6.32;;
22363;SDS011;11349;53.412;-1.328;2023-03-01T02:12:15;6.90;;;4.75;;
22363;SDS011;11349;53.412;-1.328;2023-03-01T02:14:43;10.90;;;5.07;;
22363;SDS011;11349;53.412;-1.328;2023-03-01T02:17:09;6.15;;;3.30;;
22363;SDS011;11349;53.412;-1.328;2023-03-01T02:19:59;11.45;;;3.90;;
22363;SDS011;11349;53.412;-1.328;2023-03-01T02:22:39;10.25;;;4.50;;
22363;SDS011;11349;53.412;-1.328;2023-03-01T02:30:34;10.18;;;5.85;;
22363;SDS011;11349;53.412;-1.328;2023-03-01T02:33:00;8.48;;;4.28;;
22363;SDS011;11349;53.412;-1.328;2023-03-01T02:35:29;6.85;;;4.07;;
22363;SDS011;11349;53.412;-1.328;2023-03-01T02:38:00;8.40;;;3.95;;
22363;SDS011;11349;53.412;-1.328;2023-03-01T02:40:28;6.97;;;3.72;;
22363;SDS011;11349;53.412;-1.328;2023-03-01T02:42:58;5.50;;;3.25;;
22363;SDS011;11349;53.412;-1.328;2023-03-01T02:45:25;11.27;;;4.00;;
22363;SDS011;11349;53.412;-1.328;2023-03-01T02:47:55;8.18;;;3.53;;
22363;SDS011;11349;53.412;-1.328;2023-03-01T02:55:30;8.10;;;3.70;;
22363;SDS011;11349;53.412;-1.328;2023-03-01T02:57:56;10.93;;;3.63;;
22363;SDS011;11349;53.412;-1.328;2023-03-01T03:00:29;7.55;;;3.35;;
22363;SDS011;11349;53.412;-1.328;2023-03-01T03:03:00;8.98;;;4.35;;
22363;SDS011;11349;53.412;-1.328;2023-03-01T03:05:27;7.65;;;4.57;;
22363;SDS011;11349;53.412;-1.328;2023-03-01T03:07:55;8.25;;;4.50;;
22363;SDS011;11349;53.412;-1.328;2023-03-01T03:10:28;8.98;;;4.82;;
22363;SDS011;11349;53.412;-1.328;2023-03-01T03:12:57;11.63;;;4.40;;
22363;SDS011;11349;53.412;-1.328;2023-03-01T03:15:28;5.43;;;3.50;;
22363;SDS011;11349;53.412;-1.328;2023-03-01T03:17:55;7.47;;;3.42;;
22363;SDS011;11349;53.412;-1.328;2023-03-01T03:20:23;9.15;;;4.00;;
22363;SDS011;11349;53.412;-1.328;2023-03-01T03:22:52;6.78;;;4.47;;
22363;SDS011;11349;53.412;-1.328;2023-03-01T03:25:20;8.35;;;4.38;;
22363;SDS011;11349;53.412;-1.328;2023-03-01T03:27:47;7.68;;;4.82;;
22363;SDS011;11349;53.412;-1.328;2023-03-01T03:30:17;7.68;;;4.40;;
22363;SDS011;11349;53.412;-1.328;2023-03-01T03:32:46;11.93;;;5.03;;
22363;SDS011;11349;53.412;-1.328;2023-03-01T03:35:19;7.85;;;4.65;;
22363;SDS011;11349;53.412;-1.328;2023-03-01T03:37:49;9.90;;;4.68;;
22363;SDS011;11349;53.412;-1.328;2023-03-01T03:40:32;9.70;;;4.10;;
22363;SDS011;11349;53.412;-1.328;2023-03-01T03:42:59;9.50;;;5.00;;
22363;SDS011;11349;53.412;-1.328;2023-03-01T03:45:24;9.60;;;5.15;;
22363;SDS011;11349;53.412;-1.328;2023-03-01T03:47:50;13.00;;;5.53;;
22363;SDS011;11349;53.412;-1.328;2023-03-01T03:50:16;13.20;;;6.72;;
22363;SDS011;11349;53.412;-1.328;2023-03-01T03:52:43;8.98;;;5.45;;
22363;SDS011;11349;53.412;-1.328;2023-03-01T03:55:09;10.50;;;5.85;;
22363;SDS011;11349;53.412;-1.328;2023-03-01T03:57:37;11.93;;;6.43;;
22363;SDS011;11349;53.412;-1.328;2023-03-01T04:00:04;11.35;;;5.93;;
22363;SDS011;11349;53.412;-1.328;2023-03-01T04:02:31;9.85;;;5.88;;
22363;SDS011;11349;53.412;-1.328;2023-03-01T04:05:00;11.88;;;6.10;;
22363;SDS011;11349;53.412;-1.328;2023-03-01T04:07:25;9.35;;;5.10;;
22363;SDS011;11349;53.412;-1.328;2023-03-01T04:09:51;8.63;;;4.35;;
22363;SDS011;11349;53.412;-1.328;2023-03-01T04:12:17;10.52;;;4.13;;
22363;SDS011;11349;53.412;-1.328;2023-03-01T04:14:47;8.23;;;3.33;;
22363;SDS011;11349;53.412;-1.328;2023-03-01T04:17:13;8.45;;;3.58;;
22363;SDS011;11349;53.412;-1.328;2023-03-01T04:19:39;6.15;;;3.78;;
22363;SDS011;11349;53.412;-1.328;2023-03-01T04:22:05;7.78;;;3.63;;
22363;SDS011;11349;53.412;-1.328;2023-03-01T04:24:37;7.15;;;4.07;;
22363;SDS011;11349;53.412;-1.328;2023-03-01T04:27:03;7.05;;;4.82;;
22363;SDS011;11349;53.412;-1.328;2023-03-01T04:29:32;8.10;;;5.00;;
22363;SDS011;11349;53.412;-1.328;2023-03-01T04:31:57;10.25;;;6.53;;
22363;SDS011;11349;53.412;-1.328;2023-03-01T04:34:23;9.60;;;5.80;;
22363;SDS011;11349;53.412;-1.328;2023-03-01T04:36:52;12.52;;;6.70;;
22363;SDS011;11349;53.412;-1.328;2023-03-01T04:39:17;11.70;;;7.53;;
22363;SDS011;11349;53.412;-1.328;2023-03-01T04:41:43;13.02;;;7.05;;
22363;SDS011;11349;53.412;-1.328;2023-03-01T04:44:09;10.27;;;6.53;;
22363;SDS011;11349;53.412;-1.328;2023-03-01T04:46:35;12.15;;;6.45;;
22363;SDS011;11349;53.412;-1.328;2023-03-01T04:49:02;11.88;;;5.75;;
22363;SDS011;11349;53.412;-1.328;2023-03-01T04:51:28;10.45;;;6.18;;
22363;SDS011;11349;53.412;-1.328;2023-03-01T04:53:54;10.23;;;6.13;;
22363;SDS011;11349;53.412;-1.328;2023-03-01T04:56:20;8.82;;;6.45;;
22363;SDS011;11349;53.412;-1.328;2023-03-01T04:58:48;8.85;;;5.30;;
22363;SDS011;11349;53.412;-1.328;2023-03-01T05:01:17;8.75;;;5.50;;
22363;SDS011;11349;53.412;-1.328;2023-03-01T05:03:45;6.63;;;4.88;;
22363;SDS011;11349;53.412;-1.328;2023-03-01T05:06:12;7.65;;;4.00;;
22363;SDS011;11349;53.412;-1.328;2023-03-01T05:08:39;5.95;;;3.35;;
22363;SDS011;11349;53.412;-1.328;2023-03-01T05:11:06;8.25;;;3.80;;
22363;SDS011;11349;53.412;-1.328;2023-03-01T05:13:34;9.75;;;4.50;;
22363;SDS011;11349;53.412;-1.328;2023-03-01T05:16:01;9.07;;;4.43;;
22363;SDS011;11349;53.412;-1.328;2023-03-01T05:18:29;15.00;;;4.45;;
22363;SDS011;11349;53.412;-1.328;2023-03-01T05:21:01;7.53;;;4.28;;
22363;SDS011;11349;53.412;-1.328;2023-03-01T05:23:31;7.38;;;4.05;;
22363;SDS011;11349;53.412;-1.328;2023-03-01T05:25:58;8.90;;;5.47;;
22363;SDS011;11349;53.412;-1.328;2023-03-01T05:28:25;7.97;;;4.85;;
22363;SDS011;11349;53.412;-1.328;2023-03-01T05:30:53;13.35;;;6.03;;
22363;SDS011;11349;53.412;-1.328;2023-03-01T05:33:19;12.05;;;6.55;;
22363;SDS011;11349;53.412;-1.328;2023-03-01T05:35:47;10.18;;;6.95;;
22363;SDS011;11349;53.412;-1.328;2023-03-01T05:38:14;10.82;;;6.88;;
22363;SDS011;11349;53.412;-1.328;2023-03-01T05:40:41;10.40;;;6.65;;
22363;SDS011;11349;53.412;-1.328;2023-03-01T05:43:08;12.52;;;7.38;;
22363;SDS011;11349;53.412;-1.328;2023-03-01T05:45:36;14.23;;;8.00;;
22363;SDS011;11349;53.412;-1.328;2023-03-01T05:48:03;10.98;;;6.78;;
22363;SDS011;11349;53.412;-1.328;2023-03-01T05:50:31;12.10;;;7.28;;
22363;SDS011;11349;53.412;-1.328;2023-03-01T05:53:02;11.63;;;6.65;;
22363;SDS011;11349;53.412;-1.328;2023-03-01T05:55:33;10.15;;;6.75;;
22363;SDS011;11349;53.412;-1.328;2023-03-01T05:58:00;11.88;;;7.82;;
22363;SDS011;11349;53.412;-1.328;2023-03-01T06:00:28;13.70;;;7.65;;
22363;SDS011;11349;53.412;-1.328;2023-03-01T06:02:55;11.38;;;7.75;;
22363;SDS011;11349;53.412;-1.328;2023-03-01T06:05:22;12.15;;;6.55;;
22363;SDS011;11349;53.412;-1.328;2023-03-01T06:07:49;8.90;;;5.93;;
22363;SDS011;11349;53.412;-1.328;2023-03-01T06:10:15;13.15;;;5.55;;
22363;SDS011;11349;53.412;-1.328;2023-03-01T06:12:41;7.53;;;4.70;;
22363;SDS011;11349;53.412;-1.328;2023-03-01T06:15:08;6.97;;;4.45;;
22363;SDS011;11349;53.412;-1.328;2023-03-01T06:17:36;7.13;;;4.65;;
22363;SDS011;11349;53.412;-1.328;2023-03-01T06:20:08;7.25;;;3.97;;
22363;SDS011;11349;53.412;-1.328;2023-03-01T06:22:34;9.23;;;4.38;;
22363;SDS011;11349;53.412;-1.328;2023-03-01T06:25:00;9.98;;;3.88;;
22363;SDS011;11349;53.412;-1.328;2023-03-01T06:27:26;11.60;;;4.25;;
22363;SDS011;11349;53.412;-1.328;2023-03-01T06:29:52;8.63;;;3.65;;
22363;SDS011;11349;53.412;-1.328;2023-03-01T06:32:21;8.65;;;3.75;;
22363;SDS011;11349;53.412;-1.328;2023-03-01T06:34:47;7.90;;;4.05;;
22363;SDS011;11349;53.412;-1.328;2023-03-01T06:37:13;7.65;;;3.92;;
22363;SDS011;11349;53.412;-1.328;2023-03-01T06:39:38;7.60;;;4.38;;
22363;SDS011;11349;53.412;-1.328;2023-03-01T06:42:04;6.63;;;4.03;;
22363;SDS011;11349;53.412;-1.328;2023-03-01T06:44:30;6.57;;;3.58;;
22363;SDS011;11349;53.412;-1.328;2023-03-01T06:46:56;6.35;;;3.67;;
22363;SDS011;11349;53.412;-1.328;2023-03-01T06:49:21;7.75;;;3.15;;
22363;SDS011;11349;53.412;-1.328;2023-03-01T06:51:47;7.55;;;3.42;;
22363;SDS011;11349;53.412;-1.328;2023-03-01T06:54:13;7.68;;;3.63;;
22363;SDS011;11349;53.412;-1.328;2023-03-01T06:56:38;5.30;;;2.75;;
22363;SDS011;11349;53.412;-1.328;2023-03-01T06:59:04;8.25;;;3.10;;
22363;SDS011;11349;53.412;-1.328;2023-03-01T07:01:30;11.05;;;3.25;;
22363;SDS011;11349;53.412;-1.328;2023-03-01T07:03:56;8.55;;;2.95;;
22363;SDS011;11349;53.412;-1.328;2023-03-01T07:06:22;11.02;;;3.40;;
22363;SDS011;11349;53.412;-1.328;2023-03-01T07:08:48;10.52;;;3.13;;
22363;SDS011;11349;53.412;-1.328;2023-03-01T07:11:14;10.55;;;3.03;;
22363;SDS011;11349;53.412;-1.328;2023-03-01T07:13:41;7.80;;;3.17;;
22363;SDS011;11349;53.412;-1.328;2023-03-01T07:16:07;6.97;;;2.83;;
22363;SDS011;11349;53.412;-1.328;2023-03-01T07:18:33;7.85;;;2.53;;
22363;SDS011;11349;53.412;-1.328;2023-03-01T07:21:03;7.18;;;2.20;;
22363;SDS011;11349;53.412;-1.328;2023-03-01T07:23:30;8.15;;;2.47;;
22363;SDS011;11349;53.412;-1.328;2023-03-01T07:25:58;4.88;;;2.40;;
22363;SDS011;11349;53.412;-1.328;2023-03-01T07:28:24;7.00;;;1.88;;
22363;SDS011;11349;53.412;-1.328;2023-03-01T07:30:50;9.82;;;2.30;;
22363;SDS011;11349;53.412;-1.328;2023-03-01T07:33:16;5.32;;;1.77;;
22363;SDS011;11349;53.412;-1.328;2023-03-01T07:35:42;8.00;;;2.08;;
22363;SDS011;11349;53.412;-1.328;2023-03-01T07:38:08;6.43;;;2.15;;
22363;SDS011;11349;53.412;-1.328;2023-03-01T07:40:34;8.02;;;2.67;;
22363;SDS011;11349;53.412;-1.328;2023-03-01T07:43:00;6.70;;;2.08;;
22363;SDS011;11349;53.412;-1.328;2023-03-01T07:45:27;8.77;;;2.28;;
22363;SDS011;11349;53.412;-1.328;2023-03-01T07:47:53;8.45;;;2.47;;
22363;SDS011;11349;53.412;-1.328;2023-03-01T07:50:20;7.93;;;2.70;;
22363;SDS011;11349;53.412;-1.328;2023-03-01T07:52:47;6.70;;;2.22;;
22363;SDS011;11349;53.412;-1.328;2023-03-01T07:55:14;5.55;;;2.55;;
22363;SDS011;11349;53.412;-1.328;2023-03-01T07:57:40;11.88;;;2.95;;
22363;SDS011;11349;53.412;-1.328;2023-03-01T08:00:07;8.23;;;2.50;;
22363;SDS011;11349;53.412;-1.328;2023-03-01T08:02:35;9.73;;;2.42;;
22363;SDS011;11349;53.412;-1.328;2023-03-01T08:05:00;7.18;;;2.10;;
22363;SDS011;11349;53.412;-1.328;2023-03-01T08:07:26;8.40;;;2.15;;
22363;SDS011;11349;53.412;-1.328;2023-03-01T08:09:52;8.75;;;2.80;;
22363;SDS011;11349;53.412;-1.328;2023-03-01T08:12:17;10.77;;;2.50;;
22363;SDS011;11349;53.412;-1.328;2023-03-01T08:14:43;9.18;;;2.33;;
22363;SDS011;11349;53.412;-1.328;2023-03-01T08:17:09;12.30;;;2.40;;
22363;SDS011;11349;53.412;-1.328;2023-03-01T08:19:35;9.75;;;2.90;;
22363;SDS011;11349;53.412;-1.328;2023-03-01T08:22:01;8.82;;;2.45;;
22363;SDS011;11349;53.412;-1.328;2023-03-01T08:24:27;10.75;;;3.10;;
22363;SDS011;11349;53.412;-1.328;2023-03-01T08:26:53;9.20;;;2.97;;
22363;SDS011;11349;53.412;-1.328;2023-03-01T08:29:19;9.65;;;2.42;;
22363;SDS011;11349;53.412;-1.328;2023-03-01T08:31:45;10.52;;;3.08;;
22363;SDS011;11349;53.412;-1.328;2023-03-01T08:34:11;6.97;;;3.08;;
22363;SDS011;11349;53.412;-1.328;2023-03-01T08:36:40;10.68;;;3.15;;
22363;SDS011;11349;53.412;-1.328;2023-03-01T08:39:07;11.20;;;3.72;;
22363;SDS011;11349;53.412;-1.328;2023-03-01T08:41:35;7.13;;;3.50;;
22363;SDS011;11349;53.412;-1.328;2023-03-01T08:44:01;8.30;;;3.58;;
22363;SDS011;11349;53.412;-1.328;2023-03-01T08:48:53;9.07;;;3.00;;
22363;SDS011;11349;53.412;-1.328;2023-03-01T08:51:19;8.77;;;3.40;;
22363;SDS011;11349;53.412;-1.328;2023-03-01T08:53:46;7.70;;;2.60;;
22363;SDS011;11349;53.412;-1.328;2023-03-01T08:56:12;5.45;;;2.38;;
22363;SDS011;11349;53.412;-1.328;2023-03-01T08:58:38;9.35;;;2.67;;
22363;SDS011;11349;53.412;-1.328;2023-03-01T09:01:10;9.15;;;2.70;;
22363;SDS011;11349;53.412;-1.328;2023-03-01T09:03:37;6.47;;;2.65;;
22363;SDS011;11349;53.412;-1.328;2023-03-01T09:06:04;10.27;;;2.88;;
22363;SDS011;11349;53.412;-1.328;2023-03-01T09:08:34;7.07;;;2.65;;
22363;SDS011;11349;53.412;-1.328;2023-03-01T09:11:01;7.22;;;2.70;;
22363;SDS011;11349;53.412;-1.328;2023-03-01T09:13:28;9.98;;;3.88;;
22363;SDS011;11349;53.412;-1.328;2023-03-01T09:15:56;8.10;;;2.30;;
22363;SDS011;11349;53.412;-1.328;2023-03-01T09:18:23;6.97;;;2.40;;
22363;SDS011;11349;53.412;-1.328;2023-03-01T09:20:48;7.60;;;2.60;;
22363;SDS011;11349;53.412;-1.328;2023-03-01T09:23:14;7.45;;;2.65;;
22363;SDS011;11349;53.412;-1.328;2023-03-01T09:25:40;10.60;;;3.03;;
22363;SDS011;11349;53.412;-1.328;2023-03-01T09:28:06;11.18;;;3.28;;
22363;SDS011;11349;53.412;-1.328;2023-03-01T09:30:32;9.43;;;3.20;;
22363;SDS011;11349;53.412;-1.328;2023-03-01T09:32:57;11.30;;;2.75;;
22363;SDS011;11349;53.412;-1.328;2023-03-01T09:35:23;5.88;;;2.13;;
22363;SDS011;11349;53.412;-1.328;2023-03-01T09:37:49;6.68;;;2.33;;
22363;SDS011;11349;53.412;-1.328;2023-03-01T09:40:17;13.65;;;2.55;;
22363;SDS011;11349;53.412;-1.328;2023-03-01T09:42:56;7.30;;;2.33;;
22363;SDS011;11349;53.412;-1.328;2023-03-01T09:45:38;9.07;;;2.35;;
22363;SDS011;11349;53.412;-1.328;2023-03-01T09:48:10;7.80;;;1.85;;
22363;SDS011;11349;53.412;-1.328;2023-03-01T09:50:41;6.22;;;1.80;;
22363;SDS011;11349;53.412;-1.328;2023-03-01T09:56:02;6.40;;;2.10;;
22363;SDS011;11349;53.412;-1.328;2023-03-01T09:58:52;5.93;;;1.80;;
22363;SDS011;11349;53.412;-1.328;2023-03-01T10:04:20;8.20;;;2.90;;
22363;SDS011;11349;53.412;-1.328;2023-03-01T10:09:21;7.20;;;2.78;;
22363;SDS011;11349;53.412;-1.328;2023-03-01T10:11:52;6.78;;;2.28;;
22363;SDS011;11349;53.412;-1.328;2023-03-01T10:16:57;8.75;;;3.30;;
22363;SDS011;11349;53.412;-1.328;2023-03-01T10:24:42;11.13;;;3.30;;
22363;SDS011;11349;53.412;-1.328;2023-03-01T10:27:58;8.20;;;3.13;;
22363;SDS011;11349;53.412;-1.328;2023-03-01T10:33:03;11.82;;;3.92;;
22363;SDS011;11349;53.412;-1.328;2023-03-01T10:35:42;5.55;;;2.63;;
22363;SDS011;11349;53.412;-1.328;2023-03-01T10:38:14;13.35;;;2.97;;
22363;SDS011;11349;53.412;-1.328;2023-03-01T10:40:51;4.93;;;2.42;;
22363;SDS011;11349;53.412;-1.328;2023-03-01T10:43:28;5.57;;;2.58;;
22363;SDS011;11349;53.412;-1.328;2023-03-01T10:48:51;7.70;;;2.80;;
22363;SDS011;11349;53.412;-1.328;2023-03-01T10:51:40;11.32;;;2.58;;
22363;SDS011;11349;53.412;-1.328;2023-03-01T10:54:18;10.35;;;2.53;;
22363;SDS011;11349;53.412;-1.328;2023-03-01T10:56:51;7.45;;;1.98;;
22363;SDS011;11349;53.412;-1.328;2023-03-01T10:59:42;8.18;;;1.70;;
22363;SDS011;11349;53.412;-1.328;2023-03-01T11:05:00;4.35;;;1.35;;
22363;SDS011;11349;53.412;-1.328;2023-03-01T11:07:42;7.65;;;1.60;;
22363;SDS011;11349;53.412;-1.328;2023-03-01T11:10:17;12.43;;;2.20;;
22363;SDS011;11349;53.412;-1.328;2023-03-01T11:13:08;6.45;;;2.92;;
22363;SDS011;11349;53.412;-1.328;2023-03-01T11:15:42;8.52;;;1.88;;
22363;SDS011;11349;53.412;-1.328;2023-03-01T11:18:18;8.98;;;2.10;;
22363;SDS011;11349;53.412;-1.328;2023-03-01T11:20:45;6.47;;;2.35;;
22363;SDS011;11349;53.412;-1.328;2023-03-01T11:23:12;7.22;;;1.92;;
22363;SDS011;11349;53.412;-1.328;2023-03-01T11:25:40;7.13;;;2.08;;
22363;SDS011;11349;53.412;-1.328;2023-03-01T11:28:10;6.07;;;2.55;;
22363;SDS011;11349;53.412;-1.328;2023-03-01T11:30:41;5.65;;;1.73;;
22363;SDS011;11349;53.412;-1.328;2023-03-01T11:39:22;4.38;;;1.38;;
22363;SDS011;11349;53.412;-1.328;2023-03-01T11:42:03;6.07;;;1.85;;
22363;SDS011;11349;53.412;-1.328;2023-03-01T11:44:36;6.78;;;1.40;;
22363;SDS011;11349;53.412;-1.328;2023-03-01T11:47:07;6.45;;;1.60;;
22363;SDS011;11349;53.412;-1.328;2023-03-01T11:49:54;5.82;;;1.42;;
22363;SDS011;11349;53.412;-1.328;2023-03-01T12:00:44;7.18;;;1.73;;
22363;SDS011;11349;53.412;-1.328;2023-03-01T12:13:58;7.13;;;2.30;;
22363;SDS011;11349;53.412;-1.328;2023-03-01T12:19:30;8.15;;;2.63;;
22363;SDS011;11349;53.412;-1.328;2023-03-01T12:24:52;9.23;;;2.42;;
22363;SDS011;11349;53.412;-1.328;2023-03-01T12:27:55;10.07;;;3.58;;
22363;SDS011;11349;53.412;-1.328;2023-03-01T12:30:47;8.98;;;2.25;;
22363;SDS011;11349;53.412;-1.328;2023-03-01T12:42:21;12.25;;;2.30;;
22363;SDS011;11349;53.412;-1.328;2023-03-01T12:51:40;7.18;;;1.88;;
22363;SDS011;11349;53.412;-1.328;2023-03-01T12:54:26;10.63;;;3.17;;
22363;SDS011;11349;53.412;-1.328;2023-03-01T12:56:55;7.25;;;1.25;;
22363;SDS011;11349;53.412;-1.328;2023-03-01T13:02:05;8.50;;;1.45;;
22363;SDS011;11349;53.412;-1.328;2023-03-01T13:15:25;11.18;;;2.33;;
22363;SDS011;11349;53.412;-1.328;2023-03-01T13:21:04;7.57;;;1.92;;
22363;SDS011;11349;53.412;-1.328;2023-03-01T13:23:31;5.82;;;1.98;;
22363;SDS011;11349;53.412;-1.328;2023-03-01T13:26:01;9.13;;;2.25;;
22363;SDS011;11349;53.412;-1.328;2023-03-01T13:33:47;6.38;;;1.50;;
22363;SDS011;11349;53.412;-1.328;2023-03-01T13:36:47;6.20;;;1.75;;
22363;SDS011;11349;53.412;-1.328;2023-03-01T13:46:56;5.75;;;1.70;;
22363;SDS011;11349;53.412;-1.328;2023-03-01T13:49:49;7.80;;;1.98;;
22363;SDS011;11349;53.412;-1.328;2023-03-01T13:52:32;8.13;;;1.30;;
22363;SDS011;11349;53.412;-1.328;2023-03-01T13:55:00;13.68;;;2.40;;
22363;SDS011;11349;53.412;-1.328;2023-03-01T13:57:33;5.40;;;1.73;;
22363;SDS011;11349;53.412;-1.328;2023-03-01T14:00:02;6.50;;;2.20;;
22363;SDS011;11349;53.412;-1.328;2023-03-01T14:02:29;8.13;;;1.33;;
22363;SDS011;11349;53.412;-1.328;2023-03-01T14:04:57;10.63;;;1.85;;
22363;SDS011;11349;53.412;-1.328;2023-03-01T14:07:24;7.13;;;1.70;;
22363;SDS011;11349;53.412;-1.328;2023-03-01T14:09:54;5.03;;;1.23;;
22363;SDS011;11349;53.412;-1.328;2023-03-01T14:20:23;5.38;;;1.23;;
22363;SDS011;11349;53.412;-1.328;2023-03-01T14:22:57;3.72;;;0.90;;
22363;SDS011;11349;53.412;-1.328;2023-03-01T14:25:29;6.38;;;1.17;;
22363;SDS011;11349;53.412;-1.328;2023-03-01T14:30:38;6.72;;;1.40;;
22363;SDS011;11349;53.412;-1.328;2023-03-01T14:33:27;5.85;;;1.85;;
22363;SDS011;11349;53.412;-1.328;2023-03-01T14:35:58;7.43;;;2.13;;
22363;SDS011;11349;53.412;-1.328;2023-03-01T14:41:07;6.78;;;1.52;;
22363;SDS011;11349;53.412;-1.328;2023-03-01T14:43:33;5.25;;;1.73;;
22363;SDS011;11349;53.412;-1.328;2023-03-01T14:46:00;5.38;;;1.75;;
22363;SDS011;11349;53.412;-1.328;2023-03-01T14:48:27;6.57;;;1.95;;
22363;SDS011;11349;53.412;-1.328;2023-03-01T14:50:53;5.82;;;1.10;;
22363;SDS011;11349;53.412;-1.328;2023-03-01T14:53:24;7.65;;;1.20;;
22363;SDS011;11349;53.412;-1.328;2023-03-01T14:55:52;10.90;;;1.52;;
22363;SDS011;11349;53.412;-1.328;2023-03-01T14:58:21;6.93;;;1.30;;
22363;SDS011;11349;53.412;-1.328;2023-03-01T15:01:07;8.82;;;2.22;;
22363;SDS011;11349;53.412;-1.328;2023-03-01T15:03:40;6.57;;;1.40;;
22363;SDS011;11349;53.412;-1.328;2023-03-01T15:06:15;8.05;;;1.40;;
22363;SDS011;11349;53.412;-1.328;2023-03-01T15:08:44;9.68;;;3.28;;
22363;SDS011;11349;53.412;-1.328;2023-03-01T15:11:31;5.88;;;1.63;;
22363;SDS011;11349;53.412;-1.328;2023-03-01T15:13:57;8.80;;;2.25;;
22363;SDS011;11349;53.412;-1.328;2023-03-01T15:16:25;7.10;;;2.13;;
22363;SDS011;11349;53.412;-1.328;2023-03-01T15:18:54;5.60;;;2.03;;
22363;SDS011;11349;53.412;-1.328;2023-03-01T15:21:26;8.40;;;2.58;;
22363;SDS011;11349;53.412;-1.328;2023-03-01T15:23:55;5.90;;;1.60;;
22363;SDS011;11349;53.412;-1.328;2023-03-01T15:26:43;7.55;;;1.70;;
22363;SDS011;11349;53.412;-1.328;2023-03-01T15:29:15;7.82;;;2.53;;
22363;SDS011;11349;53.412;-1.328;2023-03-01T15:31:47;7.22;;;2.30;;
22363;SDS011;11349;53.412;-1.328;2023-03-01T15:36:59;6.75;;;1.67;;
22363;SDS011;11349;53.412;-1.328;2023-03-01T15:47:41;6.15;;;1.40;;
22363;SDS011;11349;53.412;-1.328;2023-03-01T15:52:59;9.07;;;2.10;;
22363;SDS011;11349;53.412;-1.328;2023-03-01T15:55:27;6.20;;;1.83;;
22363;SDS011;11349;53.412;-1.328;2023-03-01T15:58:14;6.93;;;2.55;;
22363;SDS011;11349;53.412;-1.328;2023-03-01T16:00:42;6.03;;;1.90;;
22363;SDS011;11349;53.412;-1.328;2023-03-01T16:03:10;5.60;;;2.10;;
22363;SDS011;11349;53.412;-1.328;2023-03-01T16:05:36;8.45;;;2.47;;
22363;SDS011;11349;53.412;-1.328;2023-03-01T16:08:04;7.90;;;2.65;;
22363;SDS011;11349;53.412;-1.328;2023-03-01T16:10:31;10.80;;;2.40;;
22363;SDS011;11349;53.412;-1.328;2023-03-01T16:12:58;5.72;;;2.17;;
22363;SDS011;11349;53.412;-1.328;2023-03-01T16:17:53;6.45;;;2.40;;
22363;SDS011;11349;53.412;-1.328;2023-03-01T16:20:19;10.18;;;2.55;;
22363;SDS011;11349;53.412;-1.328;2023-03-01T16:22:45;9.13;;;2.50;;
22363;SDS011;11349;53.412;-1.328;2023-03-01T16:25:15;10.40;;;2.72;;
22363;SDS011;11349;53.412;-1.328;2023-03-01T16:27:43;12.98;;;3.60;;
22363;SDS011;11349;53.412;-1.328;2023-03-01T16:30:13;8.35;;;2.35;;
22363;SDS011;11349;53.412;-1.328;2023-03-01T16:32:42;7.10;;;2.25;;
22363;SDS011;11349;53.412;-1.328;2023-03-01T16:35:10;7.13;;;1.75;;
22363;SDS011;11349;53.412;-1.328;2023-03-01T16:37:38;8.10;;;2.55;;
22363;SDS011;11349;53.412;-1.328;2023-03-01T16:40:04;8.05;;;2.00;;
22363;SDS011;11349;53.412;-1.328;2023-03-01T16:42:36;5.65;;;1.73;;
22363;SDS011;11349;53.412;-1.328;2023-03-01T16:45:02;7.07;;;2.05;;
22363;SDS011;11349;53.412;-1.328;2023-03-01T16:47:29;7.03;;;1.48;;
22363;SDS011;11349;53.412;-1.328;2023-03-01T16:49:54;7.00;;;1.42;;
22363;SDS011;11349;53.412;-1.328;2023-03-01T16:52:21;7.05;;;1.95;;
22363;SDS011;11349;53.412;-1.328;2023-03-01T16:54:47;5.72;;;1.30;;
22363;SDS011;11349;53.412;-1.328;2023-03-01T16:57:13;7.45;;;1.48;;
22363;SDS011;11349;53.412;-1.328;2023-03-01T16:59:39;12.00;;;1.92;;
22363;SDS011;11349;53.412;-1.328;2023-03-01T17:02:05;5.25;;;1.45;;
22363;SDS011;11349;53.412;-1.328;2023-03-01T17:04:35;4.50;;;1.08;;
22363;SDS011;11349;53.412;-1.328;2023-03-01T17:07:02;8.63;;;1.70;;
22363;SDS011;11349;53.412;-1.328;2023-03-01T17:09:28;6.53;;;1.67;;
22363;SDS011;11349;53.412;-1.328;2023-03-01T17:11:54;7.15;;;1.50;;